New York, Texas
Current Conditions -  °F | °C
As of 11:15 AM on Thursday 18 Dec 2014 (Local Time) from KF44 Reporting Station
Haze Haze  
Wind Chill: 46°   Ceiling: 300
Heat Index: 46°   Visibility: 2.5mi
Dew Point: 46°   Wind: 3mph
Humidity: 100%   Direction: 80°E
Pressure: 30.15"   Gusts: NA
Location:  32.1433°N, 95.643°W
Report Text: KF44 181715Z AUTO 08003KT 2 1/2SM BR OVC003 08/08 A3015 RMK AO2
Loading
Personal Weather Stations






























Interactive Weather Map New forecast layout! Learn more

10-Day Weather Forecast

Advertisements
Track Severe Weather on mobile